createdAt,value
2022-08-22T00:02:46.875Z,78.41
2022-08-22T00:02:48.331Z,80.77
2022-08-22T00:02:58.277Z,80.42
2022-08-22T00:03:08.535Z,84.31
2022-08-22T00:06:06.797Z,80.75
2022-08-22T00:08:55.851Z,80.94
2022-08-22T00:11:46.774Z,80.91
2022-08-22T00:14:31.866Z,81.05
2022-08-22T00:17:32.809Z,80.80
2022-08-22T00:20:08.614Z,81.33
2022-08-22T00:22:42.902Z,81.55
2022-08-22T00:25:36.684Z,81.72
2022-08-22T00:28:16.895Z,81.63
2022-08-22T00:30:55.282Z,81.89
2022-08-22T00:33:40.447Z,81.95
2022-08-22T00:36:20.622Z,81.69
2022-08-22T00:39:12.597Z,81.63
2022-08-22T00:42:00.213Z,81.70
2022-08-22T00:45:02.156Z,81.81
2022-08-22T00:47:45.492Z,82.70
2022-08-22T00:50:39.697Z,83.06
2022-08-22T00:53:28.233Z,82.97
2022-08-22T00:56:42.109Z,83.03
2022-08-22T00:59:23.979Z,82.86
2022-08-22T01:02:18.234Z,82.86
2022-08-22T01:05:16.097Z,82.71
2022-08-22T01:08:14.294Z,83.08
2022-08-22T01:11:17.916Z,83.01
2022-08-22T01:14:12.609Z,82.57
2022-08-22T01:17:00.873Z,82.91
2022-08-22T01:19:50.006Z,83.35
2022-08-22T01:22:30.355Z,83.52
2022-08-22T01:25:25.906Z,83.27
2022-08-22T01:28:23.404Z,83.34
2022-08-22T01:31:24.972Z,83.64
2022-08-22T01:34:26.214Z,84.10
2022-08-22T01:37:13.214Z,84.31
2022-08-22T01:40:07.715Z,83.93
2022-08-22T01:42:55.561Z,83.72
2022-08-22T01:45:36.905Z,83.60
2022-08-22T01:48:24.628Z,83.37
2022-08-22T01:51:23.643Z,83.03
2022-08-22T01:54:03.663Z,83.26
2022-08-22T01:56:45.264Z,83.55
2022-08-22T01:59:33.924Z,83.94
2022-08-22T02:02:28.250Z,83.72
2022-08-22T02:05:11.774Z,83.68
2022-08-22T02:07:46.440Z,83.33
2022-08-22T02:10:23.811Z,83.53
2022-08-22T02:13:16.148Z,83.77
2022-08-22T02:15:53.315Z,83.77
2022-08-22T02:18:34.066Z,83.52
2022-08-22T02:21:11.910Z,83.79
2022-08-22T02:24:03.055Z,83.61
2022-08-22T02:26:51.873Z,83.79
2022-08-22T02:29:36.522Z,83.84
2022-08-22T02:32:28.593Z,83.52
2022-08-22T02:35:09.233Z,83.27
2022-08-22T02:37:49.670Z,83.06
2022-08-22T02:40:39.850Z,83.22
2022-08-22T02:43:37.153Z,83.58
2022-08-22T02:46:31.751Z,84.03
2022-08-22T02:49:27.478Z,84.51
2022-08-22T02:52:22.067Z,85.11
2022-08-22T02:55:16.798Z,85.01
2022-08-22T02:58:01.181Z,85.17
2022-08-22T03:00:44.576Z,85.11
2022-08-22T03:03:23.736Z,84.79
2022-08-22T03:06:01.895Z,84.63
2022-08-22T03:08:35.515Z,84.21
2022-08-22T03:11:19.638Z,83.84
2022-08-22T03:14:05.083Z,83.75
2022-08-22T03:17:13.276Z,83.45
2022-08-22T03:20:00.492Z,83.20
2022-08-22T03:22:58.596Z,82.99
2022-08-22T03:25:45.768Z,82.98
2022-08-22T03:28:30.605Z,82.90
2022-08-22T03:31:11.198Z,82.52
2022-08-22T03:33:42.869Z,82.65
2022-08-22T03:36:14.263Z,82.95
2022-08-22T03:39:20.487Z,84.09
2022-08-22T03:42:29.360Z,84.35
2022-08-22T03:45:22.933Z,84.41
2022-08-22T03:48:25.773Z,84.57
2022-08-22T03:51:12.275Z,85.10
2022-08-22T03:54:18.409Z,85.88
2022-08-22T03:57:14.900Z,85.79
2022-08-22T03:59:56.141Z,86.55
2022-08-22T04:02:50.146Z,87.61
2022-08-22T04:05:43.803Z,87.18
2022-08-22T04:08:14.947Z,87.76
2022-08-22T04:10:58.953Z,87.73
2022-08-22T04:13:57.565Z,87.14
2022-08-22T04:16:48.191Z,86.69
2022-08-22T04:19:44.687Z,87.50
2022-08-22T04:22:43.043Z,87.40
2022-08-22T04:25:31.837Z,86.75
2022-08-22T04:28:18.952Z,86.41
2022-08-22T04:30:54.968Z,85.69
2022-08-22T04:33:30.639Z,85.26
2022-08-22T04:36:29.587Z,84.03
2022-08-22T04:39:18.657Z,82.85
2022-08-22T04:42:29.190Z,81.83
2022-08-22T04:45:06.263Z,80.37
2022-08-22T04:48:14.197Z,79.59
2022-08-22T04:50:53.560Z,79.60
2022-08-22T04:53:39.767Z,79.59
2022-08-22T04:56:31.386Z,78.62
2022-08-22T04:59:12.868Z,79.34
2022-08-22T05:01:58.822Z,78.70
2022-08-22T05:04:32.428Z,79.50
2022-08-22T05:07:03.723Z,78.84
2022-08-22T05:09:38.152Z,76.53
2022-08-22T05:12:14.776Z,75.19
2022-08-22T05:14:56.371Z,73.13
2022-08-22T05:17:29.798Z,70.08
2022-08-22T05:20:04.198Z,68.12
2022-08-22T05:22:35.955Z,66.17
2022-08-22T05:25:11.516Z,65.70
2022-08-22T05:27:45.012Z,64.04
2022-08-22T05:30:22.043Z,64.28
2022-08-22T05:33:02.299Z,63.81
2022-08-22T05:35:38.184Z,63.58
2022-08-22T05:38:17.339Z,65.04
2022-08-22T05:40:55.599Z,64.00
2022-08-22T05:43:29.324Z,66.91
2022-08-22T05:45:59.630Z,64.20
2022-08-22T05:48:44.283Z,64.28
2022-08-22T05:51:19.457Z,64.12
2022-08-22T05:53:51.782Z,63.49
2022-08-22T05:56:47.445Z,61.46
2022-08-22T05:59:25.729Z,62.18
2022-08-22T06:02:07.211Z,62.63
2022-08-22T06:04:52.156Z,60.67
2022-08-22T06:07:27.548Z,58.25
2022-08-22T06:10:12.023Z,56.59
2022-08-22T06:13:02.508Z,55.80
2022-08-22T06:15:45.397Z,55.30
2022-08-22T06:18:23.270Z,54.36
2022-08-22T06:20:58.240Z,52.48
2022-08-22T06:23:34.685Z,50.24
2022-08-22T06:26:05.697Z,49.13
2022-08-22T06:28:56.348Z,47.81
2022-08-22T06:31:36.684Z,47.71
2022-08-22T06:34:21.108Z,48.04
2022-08-22T06:36:52.218Z,47.44
2022-08-22T06:39:25.129Z,46.40
2022-08-22T06:42:02.280Z,44.72
2022-08-22T06:44:37.433Z,44.06
2022-08-22T06:47:14.656Z,42.60
2022-08-22T06:49:48.773Z,41.62
2022-08-22T06:52:26.046Z,40.87
2022-08-22T06:55:02.578Z,41.44
2022-08-22T06:57:31.088Z,41.85
2022-08-22T07:00:06.233Z,42.07
2022-08-22T07:02:43.385Z,42.38
2022-08-22T07:05:25.999Z,41.47
2022-08-22T07:07:58.195Z,41.57
2022-08-22T07:10:27.475Z,41.13
2022-08-22T07:12:57.643Z,41.01
2022-08-22T07:15:36.799Z,40.89
2022-08-22T07:18:17.628Z,41.49
2022-08-22T07:20:59.383Z,42.21
2022-08-22T07:23:48.288Z,42.87
2022-08-22T07:26:49.947Z,44.45
2022-08-22T07:29:42.002Z,44.13
2022-08-22T07:32:21.069Z,44.19
2022-08-22T07:34:56.554Z,44.13
2022-08-22T07:37:37.567Z,45.23
2022-08-22T07:41:00.766Z,46.25
2022-08-22T07:43:34.659Z,47.04
2022-08-22T07:46:26.509Z,46.35
2022-08-22T07:49:10.125Z,46.76
2022-08-22T07:51:46.617Z,47.10
2022-08-22T07:54:22.780Z,47.85
2022-08-22T07:57:22.894Z,48.18
2022-08-22T07:59:54.026Z,49.11
2022-08-22T08:02:24.770Z,47.67
2022-08-22T08:04:56.427Z,45.10
2022-08-22T08:07:29.363Z,44.83
2022-08-22T08:10:09.956Z,44.58
2022-08-22T08:12:57.984Z,44.03
2022-08-22T08:15:36.050Z,43.48
2022-08-22T08:18:14.112Z,43.31
2022-08-22T08:20:43.290Z,44.14
2022-08-22T08:23:23.413Z,43.35
2022-08-22T08:26:10.130Z,42.57
2022-08-22T08:28:52.444Z,42.94
2022-08-22T08:31:44.823Z,43.91
2022-08-22T08:34:26.226Z,44.37
2022-08-22T08:37:15.428Z,44.97
2022-08-22T08:39:51.007Z,44.35
2022-08-22T08:43:02.048Z,44.47
2022-08-22T08:46:08.153Z,47.09
2022-08-22T08:49:06.399Z,48.10
2022-08-22T08:51:50.449Z,50.04
2022-08-22T08:54:47.461Z,50.68
2022-08-22T08:57:46.074Z,52.10
2022-08-22T09:00:35.549Z,53.40
2022-08-22T09:03:30.789Z,53.44
2022-08-22T09:06:54.818Z,53.94
2022-08-22T09:09:37.034Z,54.41
2022-08-22T09:12:19.898Z,54.74
2022-08-22T09:15:00.804Z,54.37
2022-08-22T09:18:04.911Z,54.62
2022-08-22T09:21:30.736Z,55.12
2022-08-22T09:24:37.396Z,55.89
2022-08-22T09:27:16.329Z,55.67
2022-08-22T09:30:11.590Z,55.36
2022-08-22T09:33:13.428Z,54.25
2022-08-22T09:35:58.796Z,54.02
2022-08-22T09:38:51.533Z,52.84
2022-08-22T09:41:45.090Z,52.86
2022-08-22T09:44:14.401Z,49.85
2022-08-22T09:46:56.603Z,49.63
2022-08-22T09:49:36.960Z,50.44
2022-08-22T09:52:30.028Z,50.77
2022-08-22T09:55:15.908Z,49.47
2022-08-22T09:58:03.849Z,50.03
2022-08-22T10:00:51.370Z,48.05
2022-08-22T10:03:51.502Z,46.86
2022-08-22T10:06:40.270Z,48.42
2022-08-22T10:09:13.605Z,45.64
2022-08-22T10:12:01.416Z,42.90
2022-08-22T10:14:41.112Z,41.36
2022-08-22T10:17:28.518Z,40.38
2022-08-22T10:20:19.636Z,40.56
2022-08-22T10:23:20.995Z,40.51
2022-08-22T10:26:22.962Z,39.33
2022-08-22T10:29:07.868Z,39.21
2022-08-22T10:32:01.405Z,38.23
2022-08-22T10:34:48.536Z,38.67
2022-08-22T10:37:34.053Z,37.97
2022-08-22T10:40:26.724Z,37.98
2022-08-22T10:43:00.365Z,37.20
2022-08-22T10:45:36.407Z,36.52
2022-08-22T10:48:31.810Z,36.73
2022-08-22T10:51:20.472Z,36.86
2022-08-22T10:54:26.596Z,37.82
2022-08-22T10:57:29.539Z,37.11
2022-08-22T11:00:22.520Z,37.50
2022-08-22T11:03:21.872Z,37.60
2022-08-22T11:06:05.716Z,38.14
2022-08-22T11:08:59.534Z,38.44
2022-08-22T11:11:47.562Z,39.18
2022-08-22T11:14:19.844Z,39.88
2022-08-22T11:17:27.904Z,40.40
2022-08-22T11:20:23.559Z,39.87
2022-08-22T11:23:15.387Z,39.35
2022-08-22T11:26:38.364Z,39.07
2022-08-22T11:29:33.849Z,39.96
2022-08-22T11:32:19.089Z,40.11
2022-08-22T11:35:09.035Z,40.98
2022-08-22T11:38:04.091Z,40.93
2022-08-22T11:41:02.254Z,41.25
2022-08-22T11:43:48.936Z,41.74
2022-08-22T11:46:31.124Z,42.29
2022-08-22T11:49:25.601Z,43.51
2022-08-22T11:52:13.858Z,44.02
2022-08-22T11:54:53.266Z,43.82
2022-08-22T11:57:44.335Z,43.83
2022-08-22T12:00:54.347Z,43.39
2022-08-22T12:04:09.721Z,45.40
2022-08-22T12:07:14.297Z,44.48
2022-08-22T12:09:43.924Z,44.47
2022-08-22T12:12:37.280Z,44.42
2022-08-22T12:15:09.736Z,43.94
2022-08-22T12:18:01.556Z,43.92
2022-08-22T12:20:52.821Z,43.35
2022-08-22T12:23:43.226Z,43.53
2022-08-22T12:26:53.403Z,43.27
2022-08-22T12:29:40.109Z,43.50
2022-08-22T12:32:22.845Z,43.00
2022-08-22T12:35:13.995Z,43.31
2022-08-22T12:37:52.217Z,42.56
2022-08-22T12:41:10.299Z,42.34
2022-08-22T12:43:52.510Z,43.83
2022-08-22T12:46:33.728Z,42.61
2022-08-22T12:49:19.084Z,41.70
2022-08-22T12:52:14.220Z,42.19
2022-08-22T12:54:51.983Z,42.62
2022-08-22T12:57:44.235Z,43.41
2022-08-22T13:00:32.230Z,42.92
2022-08-22T13:03:23.615Z,43.97
2022-08-22T13:05:57.252Z,43.45
2022-08-22T13:08:33.586Z,43.35
2022-08-22T13:11:23.304Z,43.08
2022-08-22T13:14:01.283Z,43.39
2022-08-22T13:16:51.116Z,43.52
2022-08-22T13:19:24.857Z,43.69
2022-08-22T13:22:12.948Z,43.84
2022-08-22T13:24:58.135Z,44.15
2022-08-22T13:27:32.954Z,44.30
2022-08-22T13:30:13.640Z,44.82
2022-08-22T13:32:56.705Z,45.65
2022-08-22T13:35:45.401Z,45.61
2022-08-22T13:38:26.639Z,46.49
2022-08-22T13:40:58.553Z,46.69
2022-08-22T13:43:52.887Z,46.87
2022-08-22T13:46:35.444Z,47.59
2022-08-22T13:49:08.191Z,47.15
2022-08-22T13:51:53.063Z,46.13
2022-08-22T13:54:44.218Z,45.23
2022-08-22T13:57:29.835Z,44.73
2022-08-22T14:00:33.174Z,44.87
2022-08-22T14:03:14.531Z,46.69
2022-08-22T14:06:32.509Z,46.23
2022-08-22T14:09:31.825Z,45.53
2022-08-22T14:12:17.295Z,47.42
2022-08-22T14:14:49.893Z,44.83
2022-08-22T14:17:25.462Z,43.35
2022-08-22T14:20:11.109Z,42.02
2022-08-22T14:22:53.088Z,42.76
2022-08-22T14:25:29.361Z,42.21
2022-08-22T14:28:09.186Z,41.57
2022-08-22T14:31:14.562Z,42.26
2022-08-22T14:33:54.393Z,41.24
2022-08-22T14:36:49.334Z,42.10
2022-08-22T14:39:43.718Z,41.26
2022-08-22T14:42:28.694Z,41.24
2022-08-22T14:45:20.139Z,41.48
2022-08-22T14:48:29.464Z,43.04
2022-08-22T14:51:23.638Z,48.07
2022-08-22T14:53:53.599Z,54.21
2022-08-22T14:56:28.487Z,56.50
2022-08-22T14:59:08.649Z,57.32
2022-08-22T15:01:55.987Z,58.11
2022-08-22T15:04:33.503Z,58.68
2022-08-22T15:07:05.156Z,59.67
2022-08-22T15:09:36.967Z,60.53
2022-08-22T15:12:30.094Z,61.63
2022-08-22T15:15:05.555Z,62.52
2022-08-22T15:17:51.028Z,63.07
2022-08-22T15:20:34.155Z,66.43
2022-08-22T15:23:15.349Z,68.77
2022-08-22T15:25:47.007Z,76.43
2022-08-22T15:28:23.700Z,76.27
2022-08-22T15:31:07.828Z,79.65
2022-08-22T15:33:45.391Z,86.88
2022-08-22T15:36:22.365Z,88.66
2022-08-22T15:39:31.661Z,90.45
2022-08-22T15:42:08.488Z,94.20
2022-08-22T15:44:44.187Z,94.23
2022-08-22T15:47:40.034Z,92.42
2022-08-22T15:50:17.044Z,93.02
2022-08-22T15:53:24.906Z,93.05
2022-08-22T15:56:05.167Z,93.87
2022-08-22T15:58:40.163Z,96.33
2022-08-22T16:01:25.355Z,97.06
2022-08-22T16:04:15.836Z,96.37
2022-08-22T16:06:50.507Z,93.10
2022-08-22T16:09:40.213Z,90.65
2022-08-22T16:12:29.008Z,90.77
2022-08-22T16:15:00.382Z,92.01
2022-08-22T16:17:29.465Z,91.07
2022-08-22T16:20:19.508Z,92.25
2022-08-22T16:22:59.729Z,93.64
2022-08-22T16:25:48.078Z,90.12
2022-08-22T16:28:36.359Z,88.67
2022-08-22T16:31:25.649Z,88.87
2022-08-22T16:34:19.443Z,91.92
2022-08-22T16:37:10.223Z,92.55
2022-08-22T16:39:48.629Z,92.15
2022-08-22T16:42:24.474Z,93.49
2022-08-22T16:45:36.297Z,93.33
2022-08-22T16:48:25.065Z,97.14
2022-08-22T16:51:19.823Z,97.52
2022-08-22T16:54:10.220Z,98.14
2022-08-22T16:57:14.610Z,96.52
2022-08-22T16:59:55.123Z,95.51
2022-08-22T17:03:11.248Z,94.44
2022-08-22T17:05:55.546Z,96.14
2022-08-22T17:08:35.915Z,96.62
2022-08-22T17:11:16.007Z,95.59
2022-08-22T17:14:03.477Z,95.09
2022-08-22T17:16:54.226Z,94.90
2022-08-22T17:19:39.479Z,95.64
2022-08-22T17:22:33.635Z,96.69
2022-08-22T17:25:39.239Z,94.90
2022-08-22T17:28:35.159Z,93.79
2022-08-22T17:31:21.340Z,94.95
2022-08-22T17:34:02.652Z,96.05
2022-08-22T17:36:57.433Z,96.99
2022-08-22T17:39:34.808Z,97.45
2022-08-22T17:42:20.967Z,97.76
2022-08-22T17:45:09.081Z,97.89
2022-08-22T17:48:12.796Z,98.66
2022-08-22T17:50:56.788Z,97.50
2022-08-22T17:53:31.664Z,97.98
2022-08-22T17:56:16.690Z,98.49
2022-08-22T17:58:55.347Z,99.08
2022-08-22T18:02:08.253Z,98.13
2022-08-22T18:05:07.264Z,97.48
2022-08-22T18:07:50.688Z,97.55
2022-08-22T18:10:51.158Z,99.49
2022-08-22T18:13:50.058Z,99.48
2022-08-22T18:16:32.271Z,97.86
2022-08-22T18:19:10.562Z,98.30
2022-08-22T18:21:54.596Z,97.91
2022-08-22T18:24:42.695Z,97.77
2022-08-22T18:27:41.422Z,95.41
2022-08-22T18:30:21.808Z,96.32
2022-08-22T18:33:29.081Z,95.87
2022-08-22T18:36:15.409Z,94.25
2022-08-22T18:39:07.670Z,95.92
2022-08-22T18:41:46.477Z,96.18
2022-08-22T18:44:24.259Z,95.91
2022-08-22T18:47:10.705Z,95.90
2022-08-22T18:49:44.532Z,96.60
2022-08-22T18:52:41.827Z,96.77
2022-08-22T18:55:28.242Z,96.55
2022-08-22T18:58:35.076Z,96.65
2022-08-22T19:01:23.383Z,97.64
2022-08-22T19:04:03.990Z,96.28
2022-08-22T19:07:16.196Z,96.46
2022-08-22T19:10:19.116Z,96.41
2022-08-22T19:13:10.598Z,96.84
2022-08-22T19:15:53.242Z,97.35
2022-08-22T19:18:37.753Z,96.87
2022-08-22T19:21:42.951Z,96.90
2022-08-22T19:24:28.773Z,96.81
2022-08-22T19:27:09.241Z,98.60
2022-08-22T19:29:38.843Z,98.53
2022-08-22T19:32:13.040Z,99.00
2022-08-22T19:34:47.125Z,99.75
2022-08-22T19:37:33.178Z,99.73
2022-08-22T19:40:14.105Z,99.52
2022-08-22T19:42:45.133Z,99.21
2022-08-22T19:45:31.026Z,99.48
2022-08-22T19:48:14.150Z,99.79
2022-08-22T19:50:45.940Z,98.74
2022-08-22T19:53:35.065Z,99.87
2022-08-22T19:56:33.127Z,99.69
2022-08-22T19:59:30.038Z,99.37
2022-08-22T20:02:20.597Z,98.75
2022-08-22T20:05:09.205Z,99.31
2022-08-22T20:07:54.110Z,98.45
2022-08-22T20:10:46.124Z,98.62
2022-08-22T20:13:28.945Z,98.02
2022-08-22T20:16:21.698Z,98.80
2022-08-22T20:19:01.920Z,98.23
2022-08-22T20:21:45.529Z,96.87
2022-08-22T20:24:32.372Z,96.74
2022-08-22T20:27:14.500Z,98.12
2022-08-22T20:29:50.599Z,97.54
2022-08-22T20:32:24.398Z,98.01
2022-08-22T20:34:59.491Z,98.76
2022-08-22T20:38:05.466Z,98.38
2022-08-22T20:40:56.078Z,98.73
2022-08-22T20:43:39.963Z,97.30
2022-08-22T20:46:43.751Z,96.41
2022-08-22T20:49:29.434Z,96.86
2022-08-22T20:52:01.202Z,96.17
2022-08-22T20:54:37.649Z,96.94
2022-08-22T20:57:16.573Z,97.30
2022-08-22T21:00:08.261Z,97.44
2022-08-22T21:03:00.012Z,97.42
2022-08-22T21:05:41.999Z,97.51
2022-08-22T21:08:19.841Z,97.13
2022-08-22T21:11:24.985Z,98.24
2022-08-22T21:13:54.201Z,99.16
2022-08-22T21:16:31.411Z,98.33
2022-08-22T21:19:04.547Z,97.61
2022-08-22T21:21:41.450Z,98.58
2022-08-22T21:24:11.055Z,99.38
2022-08-22T21:26:59.910Z,99.06
2022-08-22T21:29:32.682Z,99.79
2022-08-22T21:32:22.128Z,98.80
2022-08-22T21:34:52.995Z,98.84
2022-08-22T21:37:42.525Z,99.04
2022-08-22T21:40:30.563Z,99.96
2022-08-22T21:43:09.797Z,99.33
2022-08-22T21:45:39.301Z,99.35
2022-08-22T21:48:34.214Z,99.61
2022-08-22T21:51:35.198Z,99.21
2022-08-22T21:54:31.718Z,98.38
2022-08-22T21:57:14.712Z,96.77
2022-08-22T21:59:51.880Z,96.42
2022-08-22T22:02:36.640Z,97.23
2022-08-22T22:05:13.777Z,97.76
2022-08-22T22:07:48.601Z,98.15
2022-08-22T22:10:19.652Z,98.98
2022-08-22T22:12:53.250Z,100.00
2022-08-22T22:15:27.909Z,99.93
2022-08-22T22:17:59.152Z,99.71
2022-08-22T22:20:32.902Z,99.21
2022-08-22T22:23:06.806Z,99.00
2022-08-22T22:25:39.766Z,99.41
2022-08-22T22:28:22.875Z,99.50
2022-08-22T22:30:58.022Z,99.78
2022-08-22T22:33:30.189Z,98.60
2022-08-22T22:36:11.337Z,98.01
2022-08-22T22:38:41.510Z,97.94
2022-08-22T22:41:11.685Z,98.82
2022-08-22T22:43:41.149Z,99.21
2022-08-22T22:46:11.236Z,99.97
2022-08-22T22:48:41.510Z,100.00
2022-08-22T22:51:13.956Z,98.48
2022-08-22T22:53:46.959Z,99.30
2022-08-22T22:56:21.313Z,99.48
2022-08-22T22:59:00.718Z,99.78
2022-08-22T23:02:14.729Z,99.91
2022-08-22T23:04:50.853Z,100.00
2022-08-22T23:07:25.680Z,99.98
2022-08-22T23:09:56.761Z,98.85
2022-08-22T23:12:38.664Z,98.62
2022-08-22T23:15:09.376Z,98.43
2022-08-22T23:17:38.629Z,98.29
2022-08-22T23:20:10.739Z,98.43
2022-08-22T23:22:43.729Z,99.44
2022-08-22T23:25:13.204Z,99.79
2022-08-22T23:27:45.299Z,99.97
2022-08-22T23:30:25.150Z,99.02
2022-08-22T23:32:56.436Z,99.82
2022-08-22T23:35:25.525Z,100.00
2022-08-22T23:37:55.794Z,100.00
2022-08-22T23:40:26.442Z,99.65
2022-08-22T23:43:00.481Z,99.09
2022-08-22T23:45:30.577Z,98.64
2022-08-22T23:47:59.566Z,98.07
2022-08-22T23:50:29.271Z,98.62
2022-08-22T23:52:58.601Z,99.37
2022-08-22T23:55:28.053Z,99.09
2022-08-22T23:57:58.165Z,99.92
